CheckWX is a tool to help pilots better visualize weather data.  It is not intended as a substitute for an official pre-flight weather briefing.

01:11:07 UTC

D50 METAR
Crosby Municipal Airport
Crosby, North Dakota, USA
Current

16 mins ago

KD50 200055Z AUTO 32009KT 10SM CLR 22/08 A2978 RMK AO2
Observed
Jul-20 @ 00:55 UTC
Wind
  • 320° at 9 KTS
Visibility
10 SM
Flight Rules
VFR
Cloud Levels
  • Clear skies
Temperature
22°C / 72°F
Dewpoint
C / 46°F
Humidity
41%
Altimeter
29.78" Hg
Pressure
1008.42 hPa
Previous

36 mins ago

KD50 200035Z AUTO 29008G15KT 10SM CLR 23/08 A2978 RMK AO2
Observed
Jul-20 @ 00:35 UTC
Wind
  • 290° at 8 KTS
  • Gusting to 15 KTS
Visibility
10 SM
Flight Rules
VFR
Cloud Levels
  • Clear skies
Temperature
23°C / 73°F
Dewpoint
C / 46°F
Humidity
38%
Altimeter
29.78" Hg
Pressure
1008.42 hPa
Previous

56 mins ago

KD50 200015Z AUTO 26010G18KT 10SM CLR 24/06 A2977 RMK AO2
Observed
Jul-20 @ 00:15 UTC
Wind
  • 260° at 10 KTS
  • Gusting to 18 KTS
Visibility
10 SM
Flight Rules
VFR
Cloud Levels
  • Clear skies
Temperature
24°C / 75°F
Dewpoint
C / 43°F
Humidity
31%
Altimeter
29.77" Hg
Pressure
1008.12 hPa